sensor_id;sensor_type;location;lat;lon;timestamp;P1;durP1;ratioP1;P2;durP2;ratioP2
64199;SDS011;50516;52.272;5.136;2023-08-12T00:01:16;11.70;;;5.82;;
64199;SDS011;50516;52.272;5.136;2023-08-12T00:03:41;14.23;;;5.55;;
64199;SDS011;50516;52.272;5.136;2023-08-12T00:06:07;9.27;;;5.32;;
64199;SDS011;50516;52.272;5.136;2023-08-12T00:08:32;9.98;;;5.50;;
64199;SDS011;50516;52.272;5.136;2023-08-12T00:10:58;7.93;;;5.70;;
64199;SDS011;50516;52.272;5.136;2023-08-12T00:13:23;13.60;;;5.00;;
64199;SDS011;50516;52.272;5.136;2023-08-12T00:15:49;8.43;;;4.43;;
64199;SDS011;50516;52.272;5.136;2023-08-12T00:18:14;10.93;;;5.00;;
64199;SDS011;50516;52.272;5.136;2023-08-12T00:20:40;9.05;;;5.35;;
64199;SDS011;50516;52.272;5.136;2023-08-12T00:23:07;7.35;;;4.30;;
64199;SDS011;50516;52.272;5.136;2023-08-12T00:25:32;13.85;;;6.20;;
64199;SDS011;50516;52.272;5.136;2023-08-12T00:27:58;9.68;;;5.00;;
64199;SDS011;50516;52.272;5.136;2023-08-12T00:30:23;12.32;;;5.40;;
64199;SDS011;50516;52.272;5.136;2023-08-12T00:32:48;10.40;;;5.10;;
64199;SDS011;50516;52.272;5.136;2023-08-12T00:35:14;11.07;;;4.65;;
64199;SDS011;50516;52.272;5.136;2023-08-12T00:37:39;9.85;;;5.28;;
64199;SDS011;50516;52.272;5.136;2023-08-12T00:40:05;9.45;;;5.15;;
64199;SDS011;50516;52.272;5.136;2023-08-12T00:42:31;10.23;;;5.32;;
64199;SDS011;50516;52.272;5.136;2023-08-12T00:44:57;8.82;;;5.05;;
64199;SDS011;50516;52.272;5.136;2023-08-12T00:47:23;13.60;;;5.85;;
64199;SDS011;50516;52.272;5.136;2023-08-12T00:49:48;9.18;;;4.95;;
64199;SDS011;50516;52.272;5.136;2023-08-12T00:52:14;11.90;;;4.68;;
64199;SDS011;50516;52.272;5.136;2023-08-12T00:54:41;10.45;;;5.13;;
64199;SDS011;50516;52.272;5.136;2023-08-12T00:57:06;7.40;;;4.78;;
64199;SDS011;50516;52.272;5.136;2023-08-12T00:59:32;10.18;;;5.45;;
64199;SDS011;50516;52.272;5.136;2023-08-12T01:02:01;10.80;;;5.35;;
64199;SDS011;50516;52.272;5.136;2023-08-12T01:04:26;7.75;;;5.40;;
64199;SDS011;50516;52.272;5.136;2023-08-12T01:06:52;7.95;;;4.93;;
64199;SDS011;50516;52.272;5.136;2023-08-12T01:09:17;8.60;;;4.93;;
64199;SDS011;50516;52.272;5.136;2023-08-12T01:14:19;10.48;;;4.97;;
64199;SDS011;50516;52.272;5.136;2023-08-12T01:16:51;9.77;;;5.85;;
64199;SDS011;50516;52.272;5.136;2023-08-12T01:19:34;10.05;;;5.38;;
64199;SDS011;50516;52.272;5.136;2023-08-12T01:22:03;11.48;;;6.43;;
64199;SDS011;50516;52.272;5.136;2023-08-12T01:24:44;9.82;;;5.13;;
64199;SDS011;50516;52.272;5.136;2023-08-12T01:27:11;15.50;;;6.88;;
64199;SDS011;50516;52.272;5.136;2023-08-12T01:29:41;11.40;;;6.05;;
64199;SDS011;50516;52.272;5.136;2023-08-12T01:37:42;10.85;;;5.65;;
64199;SDS011;50516;52.272;5.136;2023-08-12T01:40:08;8.07;;;5.32;;
64199;SDS011;50516;52.272;5.136;2023-08-12T01:42:35;13.75;;;6.63;;
64199;SDS011;50516;52.272;5.136;2023-08-12T01:45:01;12.20;;;7.13;;
64199;SDS011;50516;52.272;5.136;2023-08-12T01:47:27;13.30;;;6.88;;
64199;SDS011;50516;52.272;5.136;2023-08-12T01:49:53;12.15;;;6.88;;
64199;SDS011;50516;52.272;5.136;2023-08-12T01:52:19;13.73;;;8.00;;
64199;SDS011;50516;52.272;5.136;2023-08-12T01:54:44;17.05;;;8.60;;
64199;SDS011;50516;52.272;5.136;2023-08-12T01:57:10;15.55;;;9.07;;
64199;SDS011;50516;52.272;5.136;2023-08-12T01:59:36;15.20;;;7.40;;
64199;SDS011;50516;52.272;5.136;2023-08-12T02:02:01;16.67;;;9.20;;
64199;SDS011;50516;52.272;5.136;2023-08-12T02:04:27;11.95;;;7.32;;
64199;SDS011;50516;52.272;5.136;2023-08-12T02:06:53;14.82;;;8.00;;
64199;SDS011;50516;52.272;5.136;2023-08-12T02:09:19;12.77;;;7.45;;
64199;SDS011;50516;52.272;5.136;2023-08-12T02:11:45;12.52;;;8.07;;
64199;SDS011;50516;52.272;5.136;2023-08-12T02:14:10;22.05;;;8.98;;
64199;SDS011;50516;52.272;5.136;2023-08-12T02:16:36;13.40;;;7.13;;
64199;SDS011;50516;52.272;5.136;2023-08-12T02:19:01;17.80;;;8.75;;
64199;SDS011;50516;52.272;5.136;2023-08-12T02:21:26;13.85;;;8.25;;
64199;SDS011;50516;52.272;5.136;2023-08-12T02:23:52;19.75;;;9.00;;
64199;SDS011;50516;52.272;5.136;2023-08-12T02:26:17;21.30;;;9.05;;
64199;SDS011;50516;52.272;5.136;2023-08-12T02:28:42;16.38;;;7.03;;
64199;SDS011;50516;52.272;5.136;2023-08-12T02:31:08;18.25;;;8.40;;
64199;SDS011;50516;52.272;5.136;2023-08-12T02:33:33;14.63;;;9.32;;
64199;SDS011;50516;52.272;5.136;2023-08-12T02:35:58;18.02;;;9.05;;
64199;SDS011;50516;52.272;5.136;2023-08-12T02:38:24;18.00;;;9.35;;
64199;SDS011;50516;52.272;5.136;2023-08-12T02:40:49;15.13;;;9.05;;
64199;SDS011;50516;52.272;5.136;2023-08-12T02:43:15;19.85;;;9.68;;
64199;SDS011;50516;52.272;5.136;2023-08-12T02:45:41;16.92;;;8.95;;
64199;SDS011;50516;52.272;5.136;2023-08-12T02:48:06;20.58;;;9.82;;
64199;SDS011;50516;52.272;5.136;2023-08-12T02:50:32;18.42;;;9.63;;
64199;SDS011;50516;52.272;5.136;2023-08-12T02:52:57;14.23;;;9.10;;
64199;SDS011;50516;52.272;5.136;2023-08-12T02:55:22;13.57;;;8.57;;
64199;SDS011;50516;52.272;5.136;2023-08-12T02:57:48;18.65;;;9.88;;
64199;SDS011;50516;52.272;5.136;2023-08-12T03:00:13;18.70;;;10.77;;
64199;SDS011;50516;52.272;5.136;2023-08-12T03:02:41;17.25;;;8.85;;
64199;SDS011;50516;52.272;5.136;2023-08-12T03:05:08;17.48;;;10.52;;
64199;SDS011;50516;52.272;5.136;2023-08-12T03:07:33;16.00;;;10.18;;
64199;SDS011;50516;52.272;5.136;2023-08-12T03:09:58;22.70;;;10.95;;
64199;SDS011;50516;52.272;5.136;2023-08-12T03:12:24;19.33;;;10.57;;
64199;SDS011;50516;52.272;5.136;2023-08-12T03:14:49;22.90;;;11.93;;
64199;SDS011;50516;52.272;5.136;2023-08-12T03:17:15;21.65;;;12.27;;
64199;SDS011;50516;52.272;5.136;2023-08-12T03:19:40;18.83;;;10.20;;
64199;SDS011;50516;52.272;5.136;2023-08-12T03:22:05;18.25;;;11.65;;
64199;SDS011;50516;52.272;5.136;2023-08-12T03:24:31;19.65;;;11.82;;
64199;SDS011;50516;52.272;5.136;2023-08-12T03:26:56;21.02;;;12.98;;
64199;SDS011;50516;52.272;5.136;2023-08-12T03:29:21;18.17;;;11.57;;
64199;SDS011;50516;52.272;5.136;2023-08-12T03:31:47;14.57;;;10.85;;
64199;SDS011;50516;52.272;5.136;2023-08-12T03:34:12;18.35;;;11.00;;
64199;SDS011;50516;52.272;5.136;2023-08-12T03:36:37;21.13;;;12.80;;
64199;SDS011;50516;52.272;5.136;2023-08-12T03:39:03;20.80;;;11.75;;
64199;SDS011;50516;52.272;5.136;2023-08-12T03:41:28;20.98;;;11.25;;
64199;SDS011;50516;52.272;5.136;2023-08-12T03:43:54;21.58;;;12.50;;
64199;SDS011;50516;52.272;5.136;2023-08-12T03:46:19;17.73;;;12.00;;
64199;SDS011;50516;52.272;5.136;2023-08-12T03:48:45;20.63;;;12.02;;
64199;SDS011;50516;52.272;5.136;2023-08-12T03:51:10;17.67;;;11.23;;
64199;SDS011;50516;52.272;5.136;2023-08-12T03:53:35;20.38;;;12.93;;
64199;SDS011;50516;52.272;5.136;2023-08-12T03:56:01;18.02;;;10.57;;
64199;SDS011;50516;52.272;5.136;2023-08-12T03:58:26;20.60;;;12.68;;
64199;SDS011;50516;52.272;5.136;2023-08-12T04:00:51;23.83;;;12.73;;
64199;SDS011;50516;52.272;5.136;2023-08-12T04:03:17;20.42;;;12.23;;
64199;SDS011;50516;52.272;5.136;2023-08-12T04:05:51;26.20;;;14.65;;
64199;SDS011;50516;52.272;5.136;2023-08-12T04:08:21;19.63;;;12.70;;
64199;SDS011;50516;52.272;5.136;2023-08-12T04:10:47;19.08;;;11.60;;
64199;SDS011;50516;52.272;5.136;2023-08-12T04:13:13;21.45;;;13.98;;
64199;SDS011;50516;52.272;5.136;2023-08-12T04:15:39;20.67;;;13.60;;
64199;SDS011;50516;52.272;5.136;2023-08-12T04:18:05;19.98;;;12.98;;
64199;SDS011;50516;52.272;5.136;2023-08-12T04:20:30;18.40;;;11.93;;
64199;SDS011;50516;52.272;5.136;2023-08-12T04:22:56;21.98;;;12.95;;
64199;SDS011;50516;52.272;5.136;2023-08-12T04:25:21;18.45;;;12.65;;
64199;SDS011;50516;52.272;5.136;2023-08-12T04:27:47;14.50;;;10.27;;
64199;SDS011;50516;52.272;5.136;2023-08-12T04:30:14;18.58;;;12.70;;
64199;SDS011;50516;52.272;5.136;2023-08-12T04:32:40;20.67;;;11.20;;
64199;SDS011;50516;52.272;5.136;2023-08-12T04:35:06;20.75;;;12.05;;
64199;SDS011;50516;52.272;5.136;2023-08-12T04:37:31;17.55;;;12.10;;
64199;SDS011;50516;52.272;5.136;2023-08-12T04:39:57;17.67;;;12.57;;
64199;SDS011;50516;52.272;5.136;2023-08-12T04:42:23;20.77;;;12.43;;
64199;SDS011;50516;52.272;5.136;2023-08-12T04:44:48;21.27;;;13.30;;
64199;SDS011;50516;52.272;5.136;2023-08-12T04:47:14;17.90;;;12.05;;
64199;SDS011;50516;52.272;5.136;2023-08-12T04:49:39;20.48;;;11.15;;
64199;SDS011;50516;52.272;5.136;2023-08-12T04:52:04;16.83;;;11.63;;
64199;SDS011;50516;52.272;5.136;2023-08-12T04:54:31;23.05;;;14.48;;
64199;SDS011;50516;52.272;5.136;2023-08-12T04:56:57;16.15;;;11.85;;
64199;SDS011;50516;52.272;5.136;2023-08-12T04:59:22;19.60;;;12.73;;
64199;SDS011;50516;52.272;5.136;2023-08-12T05:01:48;20.90;;;12.07;;
64199;SDS011;50516;52.272;5.136;2023-08-12T05:04:13;18.02;;;12.50;;
64199;SDS011;50516;52.272;5.136;2023-08-12T05:06:38;17.55;;;11.77;;
64199;SDS011;50516;52.272;5.136;2023-08-12T05:09:04;23.95;;;14.45;;
64199;SDS011;50516;52.272;5.136;2023-08-12T05:11:30;17.92;;;13.45;;
64199;SDS011;50516;52.272;5.136;2023-08-12T05:13:56;20.77;;;13.90;;
64199;SDS011;50516;52.272;5.136;2023-08-12T05:16:21;16.98;;;12.30;;
64199;SDS011;50516;52.272;5.136;2023-08-12T05:18:47;24.77;;;14.13;;
64199;SDS011;50516;52.272;5.136;2023-08-12T05:21:12;15.68;;;11.95;;
64199;SDS011;50516;52.272;5.136;2023-08-12T05:23:37;19.25;;;12.48;;
64199;SDS011;50516;52.272;5.136;2023-08-12T05:26:03;20.70;;;13.05;;
64199;SDS011;50516;52.272;5.136;2023-08-12T05:28:28;19.95;;;13.88;;
64199;SDS011;50516;52.272;5.136;2023-08-12T05:30:53;22.90;;;13.95;;
64199;SDS011;50516;52.272;5.136;2023-08-12T05:33:20;20.92;;;12.80;;
64199;SDS011;50516;52.272;5.136;2023-08-12T05:35:49;21.73;;;13.50;;
64199;SDS011;50516;52.272;5.136;2023-08-12T05:38:14;19.25;;;12.38;;
64199;SDS011;50516;52.272;5.136;2023-08-12T05:40:40;21.38;;;13.80;;
64199;SDS011;50516;52.272;5.136;2023-08-12T05:43:06;19.13;;;11.73;;
64199;SDS011;50516;52.272;5.136;2023-08-12T05:45:31;21.92;;;13.82;;
64199;SDS011;50516;52.272;5.136;2023-08-12T05:47:56;22.42;;;14.98;;
64199;SDS011;50516;52.272;5.136;2023-08-12T05:50:22;21.85;;;13.23;;
64199;SDS011;50516;52.272;5.136;2023-08-12T05:52:47;17.67;;;12.73;;
64199;SDS011;50516;52.272;5.136;2023-08-12T05:55:13;20.00;;;12.13;;
64199;SDS011;50516;52.272;5.136;2023-08-12T05:57:38;21.38;;;15.57;;
64199;SDS011;50516;52.272;5.136;2023-08-12T06:00:04;23.80;;;14.18;;
64199;SDS011;50516;52.272;5.136;2023-08-12T06:02:31;24.58;;;13.68;;
64199;SDS011;50516;52.272;5.136;2023-08-12T06:04:56;23.85;;;15.15;;
64199;SDS011;50516;52.272;5.136;2023-08-12T06:07:22;20.30;;;13.23;;
64199;SDS011;50516;52.272;5.136;2023-08-12T06:09:48;20.27;;;15.90;;
64199;SDS011;50516;52.272;5.136;2023-08-12T06:12:14;21.05;;;13.60;;
64199;SDS011;50516;52.272;5.136;2023-08-12T06:14:40;24.80;;;14.93;;
64199;SDS011;50516;52.272;5.136;2023-08-12T06:17:05;21.63;;;14.63;;
64199;SDS011;50516;52.272;5.136;2023-08-12T06:19:31;21.92;;;15.75;;
64199;SDS011;50516;52.272;5.136;2023-08-12T06:21:57;23.27;;;14.82;;
64199;SDS011;50516;52.272;5.136;2023-08-12T06:24:22;23.42;;;15.80;;
64199;SDS011;50516;52.272;5.136;2023-08-12T06:26:47;19.38;;;14.13;;
64199;SDS011;50516;52.272;5.136;2023-08-12T06:29:12;22.40;;;13.45;;
64199;SDS011;50516;52.272;5.136;2023-08-12T06:31:38;19.02;;;12.30;;
64199;SDS011;50516;52.272;5.136;2023-08-12T06:34:04;21.15;;;13.30;;
64199;SDS011;50516;52.272;5.136;2023-08-12T06:36:29;18.38;;;12.73;;
64199;SDS011;50516;52.272;5.136;2023-08-12T06:38:55;19.05;;;11.00;;
64199;SDS011;50516;52.272;5.136;2023-08-12T06:41:20;16.25;;;11.18;;
64199;SDS011;50516;52.272;5.136;2023-08-12T06:43:45;13.65;;;10.07;;
64199;SDS011;50516;52.272;5.136;2023-08-12T06:46:10;14.35;;;10.20;;
64199;SDS011;50516;52.272;5.136;2023-08-12T06:48:36;12.55;;;8.23;;
64199;SDS011;50516;52.272;5.136;2023-08-12T06:51:01;13.35;;;8.15;;
64199;SDS011;50516;52.272;5.136;2023-08-12T06:53:32;12.05;;;8.32;;
64199;SDS011;50516;52.272;5.136;2023-08-12T06:55:57;15.35;;;8.32;;
64199;SDS011;50516;52.272;5.136;2023-08-12T06:58:22;12.80;;;7.78;;
64199;SDS011;50516;52.272;5.136;2023-08-12T07:00:48;13.55;;;8.23;;
64199;SDS011;50516;52.272;5.136;2023-08-12T07:03:13;8.98;;;6.88;;
64199;SDS011;50516;52.272;5.136;2023-08-12T07:05:38;10.90;;;7.00;;
64199;SDS011;50516;52.272;5.136;2023-08-12T07:08:04;13.18;;;7.53;;
64199;SDS011;50516;52.272;5.136;2023-08-12T07:10:29;11.93;;;7.05;;
64199;SDS011;50516;52.272;5.136;2023-08-12T07:12:55;9.85;;;6.95;;
64199;SDS011;50516;52.272;5.136;2023-08-12T07:15:20;10.35;;;6.90;;
64199;SDS011;50516;52.272;5.136;2023-08-12T07:17:45;11.07;;;6.80;;
64199;SDS011;50516;52.272;5.136;2023-08-12T07:20:11;11.23;;;6.55;;
64199;SDS011;50516;52.272;5.136;2023-08-12T07:22:36;8.73;;;6.10;;
64199;SDS011;50516;52.272;5.136;2023-08-12T07:25:01;12.45;;;7.05;;
64199;SDS011;50516;52.272;5.136;2023-08-12T07:27:27;8.82;;;6.25;;
64199;SDS011;50516;52.272;5.136;2023-08-12T07:29:52;8.85;;;6.63;;
64199;SDS011;50516;52.272;5.136;2023-08-12T07:32:18;7.30;;;5.45;;
64199;SDS011;50516;52.272;5.136;2023-08-12T07:34:44;5.78;;;4.63;;
64199;SDS011;50516;52.272;5.136;2023-08-12T07:37:09;6.25;;;4.93;;
64199;SDS011;50516;52.272;5.136;2023-08-12T07:39:35;6.10;;;4.82;;
64199;SDS011;50516;52.272;5.136;2023-08-12T07:42:00;6.95;;;4.60;;
64199;SDS011;50516;52.272;5.136;2023-08-12T07:44:26;7.60;;;5.05;;
64199;SDS011;50516;52.272;5.136;2023-08-12T07:46:51;6.18;;;4.40;;
64199;SDS011;50516;52.272;5.136;2023-08-12T07:49:16;6.63;;;4.07;;
64199;SDS011;50516;52.272;5.136;2023-08-12T07:51:42;5.50;;;4.35;;
64199;SDS011;50516;52.272;5.136;2023-08-12T07:54:07;6.30;;;4.65;;
64199;SDS011;50516;52.272;5.136;2023-08-12T07:56:32;7.80;;;4.65;;
64199;SDS011;50516;52.272;5.136;2023-08-12T07:58:58;6.65;;;3.88;;
64199;SDS011;50516;52.272;5.136;2023-08-12T08:01:23;7.10;;;4.05;;
64199;SDS011;50516;52.272;5.136;2023-08-12T08:03:48;6.72;;;4.13;;
64199;SDS011;50516;52.272;5.136;2023-08-12T08:06:14;7.50;;;3.75;;
64199;SDS011;50516;52.272;5.136;2023-08-12T08:08:39;5.75;;;3.70;;
64199;SDS011;50516;52.272;5.136;2023-08-12T08:11:04;5.95;;;3.28;;
64199;SDS011;50516;52.272;5.136;2023-08-12T08:13:30;7.03;;;3.40;;
64199;SDS011;50516;52.272;5.136;2023-08-12T08:15:55;5.28;;;3.03;;
64199;SDS011;50516;52.272;5.136;2023-08-12T08:18:22;6.82;;;2.80;;
64199;SDS011;50516;52.272;5.136;2023-08-12T08:20:47;7.78;;;3.05;;
64199;SDS011;50516;52.272;5.136;2023-08-12T08:23:13;5.03;;;3.05;;
64199;SDS011;50516;52.272;5.136;2023-08-12T08:25:38;6.45;;;3.13;;
64199;SDS011;50516;52.272;5.136;2023-08-12T08:28:04;3.67;;;2.40;;
64199;SDS011;50516;52.272;5.136;2023-08-12T08:30:29;4.60;;;2.65;;
64199;SDS011;50516;52.272;5.136;2023-08-12T08:32:54;6.05;;;2.70;;
64199;SDS011;50516;52.272;5.136;2023-08-12T08:35:20;5.50;;;2.45;;
64199;SDS011;50516;52.272;5.136;2023-08-12T08:37:45;4.72;;;2.67;;
64199;SDS011;50516;52.272;5.136;2023-08-12T08:40:10;8.15;;;2.65;;
64199;SDS011;50516;52.272;5.136;2023-08-12T08:42:37;7.82;;;2.63;;
64199;SDS011;50516;52.272;5.136;2023-08-12T08:45:02;9.43;;;2.90;;
64199;SDS011;50516;52.272;5.136;2023-08-12T08:47:34;6.30;;;2.92;;
64199;SDS011;50516;52.272;5.136;2023-08-12T08:49:59;9.82;;;3.47;;
64199;SDS011;50516;52.272;5.136;2023-08-12T08:52:25;10.63;;;3.33;;
64199;SDS011;50516;52.272;5.136;2023-08-12T08:54:51;6.95;;;2.70;;
64199;SDS011;50516;52.272;5.136;2023-08-12T08:57:17;8.35;;;3.40;;
64199;SDS011;50516;52.272;5.136;2023-08-12T08:59:44;7.05;;;2.60;;
64199;SDS011;50516;52.272;5.136;2023-08-12T09:02:16;9.65;;;2.90;;
64199;SDS011;50516;52.272;5.136;2023-08-12T09:04:43;6.93;;;3.20;;
64199;SDS011;50516;52.272;5.136;2023-08-12T09:07:10;5.68;;;2.88;;
64199;SDS011;50516;52.272;5.136;2023-08-12T09:09:36;8.25;;;2.97;;
64199;SDS011;50516;52.272;5.136;2023-08-12T09:12:05;11.05;;;2.90;;
64199;SDS011;50516;52.272;5.136;2023-08-12T09:14:31;6.97;;;3.17;;
64199;SDS011;50516;52.272;5.136;2023-08-12T09:16:56;12.40;;;3.95;;
64199;SDS011;50516;52.272;5.136;2023-08-12T09:19:22;8.23;;;2.70;;
64199;SDS011;50516;52.272;5.136;2023-08-12T09:21:54;8.20;;;3.08;;
64199;SDS011;50516;52.272;5.136;2023-08-12T09:24:25;11.15;;;2.90;;
64199;SDS011;50516;52.272;5.136;2023-08-12T09:26:52;9.13;;;3.50;;
64199;SDS011;50516;52.272;5.136;2023-08-12T09:29:19;10.75;;;3.20;;
64199;SDS011;50516;52.272;5.136;2023-08-12T09:34:52;8.10;;;3.33;;
64199;SDS011;50516;52.272;5.136;2023-08-12T09:37:19;6.30;;;3.92;;
64199;SDS011;50516;52.272;5.136;2023-08-12T09:39:46;8.50;;;3.40;;
64199;SDS011;50516;52.272;5.136;2023-08-12T09:42:13;9.77;;;3.33;;
64199;SDS011;50516;52.272;5.136;2023-08-12T09:44:39;6.05;;;3.05;;
64199;SDS011;50516;52.272;5.136;2023-08-12T09:47:05;10.75;;;3.08;;
64199;SDS011;50516;52.272;5.136;2023-08-12T09:49:31;10.07;;;3.88;;
64199;SDS011;50516;52.272;5.136;2023-08-12T09:51:57;10.00;;;3.20;;
64199;SDS011;50516;52.272;5.136;2023-08-12T09:54:22;7.40;;;3.00;;
64199;SDS011;50516;52.272;5.136;2023-08-12T09:56:55;5.50;;;2.78;;
64199;SDS011;50516;52.272;5.136;2023-08-12T09:59:24;8.63;;;2.65;;
64199;SDS011;50516;52.272;5.136;2023-08-12T10:01:50;6.95;;;3.00;;
64199;SDS011;50516;52.272;5.136;2023-08-12T10:04:17;8.35;;;3.28;;
64199;SDS011;50516;52.272;5.136;2023-08-12T10:06:43;11.15;;;3.47;;
64199;SDS011;50516;52.272;5.136;2023-08-12T10:09:10;11.68;;;3.35;;
64199;SDS011;50516;52.272;5.136;2023-08-12T10:11:37;10.27;;;3.72;;
64199;SDS011;50516;52.272;5.136;2023-08-12T10:14:05;10.00;;;2.92;;
64199;SDS011;50516;52.272;5.136;2023-08-12T10:16:31;6.63;;;2.80;;
64199;SDS011;50516;52.272;5.136;2023-08-12T10:18:58;11.88;;;3.00;;
64199;SDS011;50516;52.272;5.136;2023-08-12T10:21:26;8.13;;;2.65;;
64199;SDS011;50516;52.272;5.136;2023-08-12T10:23:52;10.95;;;3.30;;
64199;SDS011;50516;52.272;5.136;2023-08-12T10:26:18;11.02;;;3.30;;
64199;SDS011;50516;52.272;5.136;2023-08-12T10:28:44;9.40;;;3.50;;
64199;SDS011;50516;52.272;5.136;2023-08-12T10:31:11;11.80;;;3.20;;
64199;SDS011;50516;52.272;5.136;2023-08-12T10:33:40;10.05;;;3.25;;
64199;SDS011;50516;52.272;5.136;2023-08-12T10:36:06;10.18;;;3.28;;
64199;SDS011;50516;52.272;5.136;2023-08-12T10:38:32;11.70;;;3.10;;
64199;SDS011;50516;52.272;5.136;2023-08-12T10:44:00;11.20;;;3.50;;
64199;SDS011;50516;52.272;5.136;2023-08-12T10:46:33;9.05;;;3.00;;
64199;SDS011;50516;52.272;5.136;2023-08-12T10:49:03;10.25;;;2.88;;
64199;SDS011;50516;52.272;5.136;2023-08-12T10:52:04;4.85;;;2.50;;
64199;SDS011;50516;52.272;5.136;2023-08-12T10:54:23;7.38;;;3.45;;
64199;SDS011;50516;52.272;5.136;2023-08-12T10:59:46;8.20;;;3.10;;
64199;SDS011;50516;52.272;5.136;2023-08-12T11:05:07;9.40;;;3.05;;
64199;SDS011;50516;52.272;5.136;2023-08-12T11:07:37;12.65;;;3.00;;
64199;SDS011;50516;52.272;5.136;2023-08-12T11:10:04;13.13;;;2.92;;
64199;SDS011;50516;52.272;5.136;2023-08-12T11:12:34;11.23;;;3.65;;
64199;SDS011;50516;52.272;5.136;2023-08-12T11:15:01;10.68;;;3.90;;
64199;SDS011;50516;52.272;5.136;2023-08-12T11:17:33;10.52;;;3.03;;
64199;SDS011;50516;52.272;5.136;2023-08-12T11:20:00;9.63;;;3.75;;
64199;SDS011;50516;52.272;5.136;2023-08-12T11:22:29;8.32;;;3.33;;
64199;SDS011;50516;52.272;5.136;2023-08-12T11:24:55;11.30;;;3.05;;
64199;SDS011;50516;52.272;5.136;2023-08-12T11:27:21;8.07;;;2.60;;
64199;SDS011;50516;52.272;5.136;2023-08-12T11:29:48;11.15;;;3.30;;
64199;SDS011;50516;52.272;5.136;2023-08-12T11:32:16;9.90;;;3.60;;
64199;SDS011;50516;52.272;5.136;2023-08-12T11:34:41;11.27;;;3.25;;
64199;SDS011;50516;52.272;5.136;2023-08-12T11:37:07;7.57;;;2.83;;
64199;SDS011;50516;52.272;5.136;2023-08-12T11:39:32;7.03;;;2.72;;
64199;SDS011;50516;52.272;5.136;2023-08-12T11:41:57;10.15;;;3.00;;
64199;SDS011;50516;52.272;5.136;2023-08-12T11:44:23;11.90;;;2.90;;
64199;SDS011;50516;52.272;5.136;2023-08-12T11:46:49;10.82;;;3.95;;
64199;SDS011;50516;52.272;5.136;2023-08-12T11:49:14;9.10;;;3.13;;
64199;SDS011;50516;52.272;5.136;2023-08-12T11:51:40;11.23;;;3.78;;
64199;SDS011;50516;52.272;5.136;2023-08-12T11:54:08;8.23;;;3.00;;
64199;SDS011;50516;52.272;5.136;2023-08-12T11:56:34;9.27;;;3.30;;
64199;SDS011;50516;52.272;5.136;2023-08-12T11:58:59;14.82;;;4.00;;
64199;SDS011;50516;52.272;5.136;2023-08-12T12:01:25;11.10;;;3.28;;
64199;SDS011;50516;52.272;5.136;2023-08-12T12:03:53;11.93;;;3.97;;
64199;SDS011;50516;52.272;5.136;2023-08-12T12:06:31;7.95;;;3.17;;
64199;SDS011;50516;52.272;5.136;2023-08-12T12:09:06;10.98;;;3.58;;
64199;SDS011;50516;52.272;5.136;2023-08-12T12:11:35;15.00;;;4.05;;
64199;SDS011;50516;52.272;5.136;2023-08-12T12:14:05;11.57;;;3.88;;
64199;SDS011;50516;52.272;5.136;2023-08-12T12:16:38;11.05;;;3.35;;
64199;SDS011;50516;52.272;5.136;2023-08-12T12:19:08;12.85;;;3.17;;
64199;SDS011;50516;52.272;5.136;2023-08-12T12:21:41;14.23;;;4.32;;
64199;SDS011;50516;52.272;5.136;2023-08-12T12:24:10;11.43;;;3.38;;
64199;SDS011;50516;52.272;5.136;2023-08-12T12:26:35;11.15;;;3.45;;
64199;SDS011;50516;52.272;5.136;2023-08-12T12:29:04;10.32;;;3.38;;
64199;SDS011;50516;52.272;5.136;2023-08-12T12:31:33;9.15;;;2.95;;
64199;SDS011;50516;52.272;5.136;2023-08-12T12:34:01;11.32;;;3.40;;
64199;SDS011;50516;52.272;5.136;2023-08-12T12:36:28;8.18;;;3.58;;
64199;SDS011;50516;52.272;5.136;2023-08-12T12:38:53;9.68;;;3.45;;
64199;SDS011;50516;52.272;5.136;2023-08-12T12:41:18;9.52;;;3.50;;
64199;SDS011;50516;52.272;5.136;2023-08-12T12:43:44;13.45;;;4.00;;
64199;SDS011;50516;52.272;5.136;2023-08-12T12:46:09;11.82;;;3.20;;
64199;SDS011;50516;52.272;5.136;2023-08-12T12:48:34;13.05;;;4.07;;
64199;SDS011;50516;52.272;5.136;2023-08-12T12:51:00;10.07;;;3.33;;
64199;SDS011;50516;52.272;5.136;2023-08-12T12:53:25;12.52;;;3.60;;
64199;SDS011;50516;52.272;5.136;2023-08-12T12:55:50;9.38;;;3.08;;
64199;SDS011;50516;52.272;5.136;2023-08-12T12:58:16;12.68;;;3.40;;
64199;SDS011;50516;52.272;5.136;2023-08-12T13:00:42;15.70;;;4.35;;
64199;SDS011;50516;52.272;5.136;2023-08-12T13:03:07;9.85;;;3.53;;
64199;SDS011;50516;52.272;5.136;2023-08-12T13:05:32;12.55;;;3.53;;
64199;SDS011;50516;52.272;5.136;2023-08-12T13:07:58;11.40;;;3.42;;
64199;SDS011;50516;52.272;5.136;2023-08-12T13:10:23;16.77;;;4.18;;
64199;SDS011;50516;52.272;5.136;2023-08-12T13:12:48;11.55;;;3.30;;
64199;SDS011;50516;52.272;5.136;2023-08-12T13:15:14;14.82;;;4.25;;
64199;SDS011;50516;52.272;5.136;2023-08-12T13:17:40;14.63;;;3.85;;
64199;SDS011;50516;52.272;5.136;2023-08-12T13:20:05;10.05;;;3.45;;
64199;SDS011;50516;52.272;5.136;2023-08-12T13:22:31;13.52;;;3.63;;
64199;SDS011;50516;52.272;5.136;2023-08-12T13:24:56;11.00;;;3.80;;
64199;SDS011;50516;52.272;5.136;2023-08-12T13:27:22;12.70;;;3.70;;
64199;SDS011;50516;52.272;5.136;2023-08-12T13:29:48;11.95;;;3.70;;
64199;SDS011;50516;52.272;5.136;2023-08-12T13:32:13;12.18;;;4.10;;
64199;SDS011;50516;52.272;5.136;2023-08-12T13:34:38;12.70;;;3.65;;
64199;SDS011;50516;52.272;5.136;2023-08-12T13:37:04;10.38;;;3.45;;
64199;SDS011;50516;52.272;5.136;2023-08-12T13:39:29;11.70;;;3.75;;
64199;SDS011;50516;52.272;5.136;2023-08-12T13:41:54;13.20;;;3.67;;
64199;SDS011;50516;52.272;5.136;2023-08-12T13:44:21;12.77;;;4.28;;
64199;SDS011;50516;52.272;5.136;2023-08-12T13:46:47;12.23;;;3.78;;
64199;SDS011;50516;52.272;5.136;2023-08-12T13:49:12;13.60;;;4.22;;
64199;SDS011;50516;52.272;5.136;2023-08-12T13:51:37;12.35;;;3.90;;
64199;SDS011;50516;52.272;5.136;2023-08-12T13:54:03;14.00;;;3.55;;
64199;SDS011;50516;52.272;5.136;2023-08-12T13:56:28;10.68;;;3.75;;
64199;SDS011;50516;52.272;5.136;2023-08-12T13:58:54;14.30;;;3.97;;
64199;SDS011;50516;52.272;5.136;2023-08-12T14:01:19;12.20;;;3.63;;
64199;SDS011;50516;52.272;5.136;2023-08-12T14:03:44;13.10;;;4.75;;
64199;SDS011;50516;52.272;5.136;2023-08-12T14:06:10;12.30;;;4.57;;
64199;SDS011;50516;52.272;5.136;2023-08-12T14:08:35;11.30;;;3.72;;
64199;SDS011;50516;52.272;5.136;2023-08-12T14:11:01;10.40;;;3.47;;
64199;SDS011;50516;52.272;5.136;2023-08-12T14:13:26;12.82;;;3.70;;
64199;SDS011;50516;52.272;5.136;2023-08-12T14:15:52;11.88;;;4.50;;
64199;SDS011;50516;52.272;5.136;2023-08-12T14:18:18;18.20;;;4.32;;
64199;SDS011;50516;52.272;5.136;2023-08-12T14:20:43;11.13;;;3.33;;
64199;SDS011;50516;52.272;5.136;2023-08-12T14:23:08;12.57;;;3.88;;
64199;SDS011;50516;52.272;5.136;2023-08-12T14:25:34;11.77;;;2.97;;
64199;SDS011;50516;52.272;5.136;2023-08-12T14:27:59;11.13;;;3.45;;
64199;SDS011;50516;52.272;5.136;2023-08-12T14:30:24;10.20;;;3.75;;
64199;SDS011;50516;52.272;5.136;2023-08-12T14:32:53;13.00;;;3.97;;
64199;SDS011;50516;52.272;5.136;2023-08-12T14:35:18;11.65;;;4.13;;
64199;SDS011;50516;52.272;5.136;2023-08-12T14:37:44;9.25;;;4.25;;
64199;SDS011;50516;52.272;5.136;2023-08-12T14:40:09;10.75;;;4.28;;
64199;SDS011;50516;52.272;5.136;2023-08-12T14:42:35;10.82;;;3.92;;
64199;SDS011;50516;52.272;5.136;2023-08-12T14:45:00;11.60;;;3.83;;
64199;SDS011;50516;52.272;5.136;2023-08-12T14:47:26;11.50;;;3.63;;
64199;SDS011;50516;52.272;5.136;2023-08-12T14:49:51;16.35;;;4.20;;